Time;durP1;ratioP1;P1;durP2;ratioP2;P2;SDS_P1;SDS_P2;PMS_P1;PMS_P2;Temp;Humidity;BMP_temperature;BMP_pressure;BME280_temperature;BME280_humidity;BME280_pressure;Samples;Min_cycle;Max_cycle;Signal;HPM_P1;HPM_P2
2022/06/04 00:02:37;;;;;;;4.97;2.42;;;;;;;23.03;54.67;99905.94;7686266;32;37015;-72
2022/06/04 00:06:54;;;;;;;7.25;2.30;;;;;;;22.69;55.48;99904.53;7686395;32;40114;-72
2022/06/04 00:15:46;;;;;;;4.50;2.28;;;;;;;22.61;58.59;99899.91;7685953;32;38736;-72
2022/06/04 00:20:03;;;;;;;5.30;2.65;;;;;;;22.83;57.49;99893.84;7686109;32;36397;-73
2022/06/04 00:24:19;;;;;;;4.35;2.20;;;;;;;23.16;56.64;99897.59;7660079;32;40449;-72
2022/06/04 00:28:36;;;;;;;4.05;1.92;;;;;;;23.13;58.02;99898.28;7685754;32;39934;-72
2022/06/04 00:32:52;;;;;;;8.10;1.90;;;;;;;22.92;58.84;99906.78;7685812;32;38678;-73
2022/06/04 00:37:08;;;;;;;5.10;1.52;;;;;;;22.79;56.05;99906.84;7685967;32;37269;-72
2022/06/04 00:41:44;;;;;;;5.22;1.50;;;;;;;22.91;56.77;99903.22;7685639;32;39377;-72
2022/06/04 00:46:37;;;;;;;4.40;1.70;;;;;;;22.96;54.69;99891.84;7673047;32;39932;-72
2022/06/04 00:50:54;;;;;;;7.25;2.03;;;;;;;22.92;56.52;99868.72;7685648;32;38290;-71
2022/06/04 00:55:11;;;;;;;11.10;1.83;;;;;;;22.78;57.55;99859.94;7672117;32;37165;-73
2022/06/04 00:59:42;;;;;;;3.72;2.00;;;;;;;22.90;57.10;99853.53;7685666;32;39302;-74
2022/06/04 01:04:47;;;;;;;5.07;2.10;;;;;;;23.04;57.94;99854.75;7684807;32;39919;-74
2022/06/04 01:09:11;;;;;;;4.32;1.85;;;;;;;23.14;58.09;99845.09;7684965;32;38688;-73
2022/06/04 01:13:48;;;;;;;3.47;2.15;;;;;;;23.09;58.36;99833.44;7685106;32;36856;-73
2022/06/04 01:18:26;;;;;;;3.65;1.87;;;;;;;22.98;58.45;99841.47;7685017;32;39277;-74
2022/06/04 01:23:19;;;;;;;5.43;1.70;;;;;;;22.58;59.62;99833.97;7685409;32;40715;-74
2022/06/04 01:27:48;;;;;;;5.65;2.17;;;;;;;22.74;59.22;99840.37;7685311;32;37861;-73
2022/06/04 01:32:21;;;;;;;4.65;2.22;;;;;;;22.58;59.61;99833.97;7672069;32;37095;-73
2022/06/04 01:36:45;;;;;;;3.60;2.20;;;;;;;22.34;60.13;99832.87;7685486;32;39254;-73
2022/06/04 01:41:06;;;;;;;4.37;2.00;;;;;;;22.06;61.28;99836.34;7671538;32;40848;-73
2022/06/04 01:45:24;;;;;;;5.12;2.55;;;;;;;22.09;61.31;99845.94;7671566;32;37953;-73
2022/06/04 01:49:45;;;;;;;3.53;1.92;;;;;;;22.21;60.87;99831.22;7671809;32;36014;-73
2022/06/04 01:54:10;;;;;;;4.97;2.40;;;;;;;22.06;61.39;99829.97;7685702;32;40436;-73
2022/06/04 01:58:32;;;;;;;4.93;2.50;;;;;;;22.09;61.51;99834.81;7659788;32;39930;-73
2022/06/04 02:02:50;;;;;;;6.70;2.40;;;;;;;21.99;62.10;99825.03;7684865;32;37984;-72
2022/06/04 02:11:49;;;;;;;7.55;2.47;;;;;;;21.93;62.48;99831.94;7673278;32;40036;-73
2022/06/04 02:16:20;;;;;;;7.68;2.62;;;;;;;21.74;63.91;99843.63;7670434;32;39720;-74
2022/06/04 02:20:37;;;;;;;8.73;2.42;;;;;;;21.64;64.18;99852.38;7671817;32;38694;-73
2022/06/04 02:24:54;;;;;;;6.57;2.92;;;;;;;21.95;62.68;99837.94;7684636;32;37079;-74
2022/06/04 02:29:10;;;;;;;6.70;2.83;;;;;;;21.91;63.37;99823.97;7684446;32;38909;-74
2022/06/04 02:33:26;;;;;;;10.60;2.62;;;;;;;21.93;63.09;99849.41;7684476;32;40078;-73
2022/06/04 02:37:45;;;;;;;6.53;3.03;;;;;;;21.68;64.19;99845.00;7683978;32;37954;-73
2022/06/04 02:42:29;;;;;;;6.40;2.30;;;;;;;21.49;65.07;99826.13;7684203;32;36983;-73
2022/06/04 02:46:52;;;;;;;7.97;3.03;;;;;;;21.63;64.55;99806.38;7684153;32;39142;-74
2022/06/04 02:51:16;;;;;;;7.53;3.00;;;;;;;21.38;65.44;99806.31;7671164;32;40768;-73
2022/06/04 02:55:39;;;;;;;5.20;2.60;;;;;;;21.45;65.22;99811.31;7684533;32;35615;-76
2022/06/04 02:59:55;;;;;;;;;;;;;;;21.37;65.17;99799.97;7671218;32;37038;-75
2022/06/04 03:04:11;;;;;;;6.57;2.72;;;;;;;21.49;65.05;99807.53;7684073;32;40138;-77
2022/06/04 03:08:31;;;;;;;5.57;2.67;;;;;;;21.43;65.37;99813.62;7670429;32;39946;-76
2022/06/04 03:12:47;;;;;;;6.50;2.53;;;;;;;21.47;65.21;99806.25;7683598;32;39126;-75
2022/06/04 03:17:06;;;;;;;5.40;2.67;;;;;;;21.54;64.72;99823.13;7683711;32;37701;-76
2022/06/04 03:21:22;;;;;;;7.85;2.90;;;;;;;21.45;64.68;99825.19;7683679;32;40081;-76
2022/06/04 03:25:39;;;;;;;7.47;2.90;;;;;;;21.37;65.37;99818.59;7683526;32;40348;-75
2022/06/04 03:29:55;;;;;;;9.60;3.15;;;;;;;21.28;66.83;99826.19;7685996;32;38629;-74
2022/06/04 03:34:12;;;;;;;6.87;2.97;;;;;;;21.39;65.92;99824.59;7686741;32;37263;-74
2022/06/04 03:38:28;;;;;;;4.28;2.65;;;;;;;21.39;66.49;99824.59;7686591;32;40096;-74
2022/06/04 03:42:44;;;;;;;5.70;2.78;;;;;;;21.31;66.91;99809.66;7686208;32;40223;-74
2022/06/04 03:47:00;;;;;;;5.75;2.50;;;;;;;21.49;65.88;99812.25;7686375;32;37827;-74
2022/06/04 03:51:16;;;;;;;6.57;3.00;;;;;;;21.57;65.68;99803.03;7686310;32;37147;-75
2022/06/04 03:55:32;;;;;;;6.03;3.00;;;;;;;21.42;65.90;99795.34;7686368;32;39355;-74
2022/06/04 03:59:51;;;;;;;6.00;3.00;;;;;;;21.60;64.80;99799.56;7686373;32;40000;-75
2022/06/04 04:04:07;;;;;;;7.47;2.90;;;;;;;21.40;65.49;99795.69;7686001;32;37663;-75
2022/06/04 04:08:25;;;;;;;8.55;2.60;;;;;;;21.25;66.16;99799.12;7686272;32;36846;-74
2022/06/04 04:12:41;;;;;;;9.35;2.67;;;;;;;21.25;65.75;99791.66;7685825;32;39139;-74
2022/06/04 04:16:57;;;;;;;5.82;2.20;;;;;;;21.11;65.81;99793.91;7686072;32;39964;-75
2022/06/04 04:21:19;;;;;;;4.60;2.67;;;;;;;21.07;66.09;99792.97;7685410;32;38693;-75
2022/06/04 04:25:36;;;;;;;6.97;2.90;;;;;;;21.05;66.06;99790.56;7685352;32;37638;-74
2022/06/04 04:29:53;;;;;;;8.30;2.95;;;;;;;20.93;66.77;99791.31;7684766;32;39415;-74
2022/06/04 04:34:09;;;;;;;6.68;3.10;;;;;;;20.94;66.68;99787.41;7685494;32;39832;-73
2022/06/04 04:38:25;;;;;;;7.20;3.40;;;;;;;21.12;66.32;99806.62;7685629;32;37801;-73
2022/06/04 04:42:42;;;;;;;8.63;3.08;;;;;;;21.08;66.41;99811.25;7680802;32;157830;-74
2022/06/04 04:46:58;;;;;;;10.13;3.90;;;;;;;21.13;66.81;99806.28;7685463;32;40066;-74
2022/06/04 04:51:19;;;;;;;8.82;3.12;;;;;;;21.16;66.73;99805.59;7685730;32;39898;-75
2022/06/04 04:55:35;;;;;;;9.82;3.55;;;;;;;21.00;67.15;99802.66;7685697;32;37961;-75
2022/06/04 04:59:51;;;;;;;6.25;3.17;;;;;;;21.17;66.81;99803.63;7685428;32;38067;-73
2022/06/04 05:04:07;;;;;;;8.38;3.72;;;;;;;21.17;67.19;99801.66;7685191;32;39219;-75
2022/06/04 05:08:23;;;;;;;6.72;3.40;;;;;;;21.19;66.81;99793.00;7685621;32;39986;-75
2022/06/04 05:12:39;;;;;;;9.98;3.47;;;;;;;21.03;67.15;99786.50;7685491;32;38658;-75
2022/06/04 05:16:55;;;;;;;6.50;3.35;;;;;;;21.07;66.97;99784.66;7685261;32;36885;-70
2022/06/04 05:21:36;;;;;;;10.02;3.60;;;;;;;20.76;68.32;99786.75;7684882;32;41578;-75
2022/06/04 05:25:52;;;;;;;8.20;3.85;;;;;;;20.47;69.45;99792.38;7685399;32;39861;-74
2022/06/04 05:30:08;;;;;;;6.05;3.55;;;;;;;20.60;69.08;99797.63;7685282;32;37932;-74
2022/06/04 05:34:25;;;;;;;8.43;4.62;;;;;;;20.82;68.17;99804.00;7684248;32;37087;-75
2022/06/04 05:38:42;;;;;;;10.25;3.95;;;;;;;20.72;68.79;99824.59;7685033;32;39319;-73
2022/06/04 05:42:58;;;;;;;9.80;3.22;;;;;;;20.90;68.30;99825.25;7685145;32;40015;-80
2022/06/04 05:47:14;;;;;;;5.43;3.25;;;;;;;21.07;68.06;99815.16;7685185;32;38025;-73
2022/06/04 05:51:31;;;;;;;8.43;3.60;;;;;;;20.59;69.39;99820.94;7684485;32;37133;-74
2022/06/04 05:55:47;;;;;;;5.30;3.30;;;;;;;20.75;68.60;99812.06;7683898;32;40026;-72
2022/06/04 06:00:08;;;;;;;10.73;3.50;;;;;;;21.01;67.63;99820.13;7684957;32;40711;-74
2022/06/04 06:04:26;;;;;;;7.37;3.00;;;;;;;20.91;68.14;99818.56;7684741;32;37951;-74
2022/06/04 06:08:42;;;;;;;8.10;3.40;;;;;;;21.26;66.84;99820.97;7684919;32;37467;-75
2022/06/04 06:12:58;;;;;;;7.28;3.30;;;;;;;21.29;66.65;99825.03;7684012;32;39564;-72
2022/06/04 06:17:14;;;;;;;9.23;3.58;;;;;;;21.29;66.83;99825.03;7684938;32;40026;-71
2022/06/04 06:21:33;;;;;;;7.45;2.95;;;;;;;21.00;67.46;99824.81;7684711;32;37977;-72
2022/06/04 06:25:49;;;;;;;6.85;2.95;;;;;;;21.01;67.82;99818.13;7683875;32;38083;-73
2022/06/04 06:30:06;;;;;;;5.00;2.72;;;;;;;21.10;67.82;99825.56;7684579;32;39825;-75
2022/06/04 06:34:22;;;;;;;6.75;2.95;;;;;;;21.19;67.07;99821.53;7684412;32;40798;-74
2022/06/04 06:38:39;;;;;;;5.78;2.70;;;;;;;21.06;68.06;99806.03;7684358;32;37831;-73
2022/06/04 06:42:55;;;;;;;8.80;2.60;;;;;;;21.29;66.94;99809.19;7684487;32;36856;-74
2022/06/04 06:47:11;;;;;;;6.87;2.65;;;;;;;21.18;67.38;99808.03;7670688;32;39200;-76
2022/06/04 06:51:56;;;;;;;5.78;2.58;;;;;;;21.21;67.49;99807.34;7684180;32;39849;-73
2022/06/04 06:56:13;;;;;;;8.30;2.55;;;;;;;21.29;67.41;99809.19;7669439;32;38542;-74
2022/06/04 07:00:29;;;;;;;6.05;2.50;;;;;;;21.40;67.02;99801.25;7683932;32;37103;-73
2022/06/04 07:04:45;;;;;;;6.05;2.85;;;;;;;21.26;67.48;99798.00;7683024;32;39989;-73
2022/06/04 07:09:04;;;;;;;10.38;1.85;;;;;;;21.21;68.08;99776.84;7684372;32;39362;-73
2022/06/04 07:13:20;;;;;;;3.30;2.15;;;;;;;21.56;66.56;99791.12;7683469;32;37618;-71
2022/06/04 07:17:36;;;;;;;7.47;2.12;;;;;;;21.42;67.05;99814.75;7670170;32;37108;-73
2022/06/04 07:21:54;;;;;;;6.62;2.45;;;;;;;21.33;67.32;99806.56;7683497;32;39505;-74
2022/06/04 07:26:12;;;;;;;6.62;2.37;;;;;;;21.36;67.69;99809.44;7683726;32;40923;-74
2022/06/04 07:30:28;;;;;;;3.58;2.15;;;;;;;21.42;67.17;99809.22;7683031;32;36856;-73
2022/06/04 07:34:44;;;;;;;3.17;2.20;;;;;;;21.49;67.19;99807.53;7683100;32;37100;-74
2022/06/04 07:39:01;;;;;;;10.30;3.20;;;;;;;21.37;67.70;99804.72;7683033;32;39352;-73
2022/06/04 07:43:17;;;;;;;8.98;3.10;;;;;;;21.39;67.73;99800.44;7682774;32;39922;-74
2022/06/04 07:47:34;;;;;;;10.02;3.80;;;;;;;21.54;67.21;99800.94;7682529;32;38622;-75
2022/06/04 07:51:51;;;;;;;8.43;3.25;;;;;;;21.09;69.02;99804.53;7682873;32;37412;-73
2022/06/04 07:56:09;;;;;;;8.45;3.75;;;;;;;21.63;66.53;99800.81;7682884;32;39487;-73
2022/06/04 08:00:25;;;;;;;10.32;3.55;;;;;;;21.63;66.81;99807.22;7682753;32;39943;-73
2022/06/04 08:04:41;;;;;;;7.97;3.28;;;;;;;21.74;66.07;99808.34;7682658;32;37878;-74
2022/06/04 08:09:00;;;;;;;11.00;3.10;;;;;;;21.64;67.05;99808.81;7682672;32;36839;-74
2022/06/04 08:17:36;;;;;;;7.65;3.47;;;;;;;21.76;66.92;99808.81;7686217;32;40755;-73
2022/06/04 08:21:52;;;;;;;8.85;3.72;;;;;;;21.87;66.66;99800.84;7686038;32;38006;-74
2022/06/04 08:26:09;;;;;;;8.65;2.95;;;;;;;21.87;66.98;99791.69;7672457;32;37811;-75
2022/06/04 08:30:25;;;;;;;6.03;2.65;;;;;;;21.80;67.48;99794.25;7685925;32;39147;-74
2022/06/04 08:34:42;;;;;;;3.78;2.62;;;;;;;22.05;66.69;99801.41;7685907;32;39708;-74
2022/06/04 08:38:58;;;;;;;8.18;3.00;;;;;;;22.00;66.79;99820.25;7684922;32;38791;-73
2022/06/04 08:43:54;;;;;;;6.15;2.87;;;;;;;21.96;66.65;99825.72;7684918;32;36649;-74
2022/06/04 08:48:28;;;;;;;17.48;3.03;;;;;;;22.06;65.94;99821.62;7669054;32;39785;-75
2022/06/04 08:52:49;;;;;;;6.32;2.50;;;;;;;21.95;66.27;99829.62;7685316;32;40933;-74
2022/06/04 09:01:51;;;;;;;4.93;2.80;;;;;;;21.76;66.91;99833.78;7685663;32;37181;-74
2022/06/04 09:06:22;;;;;;;9.52;3.00;;;;;;;21.89;67.08;99837.38;7685805;32;39133;-75
2022/06/04 09:10:51;;;;;;;10.50;3.15;;;;;;;21.99;66.84;99835.28;7685538;32;39955;-74
2022/06/04 09:15:12;;;;;;;5.15;3.30;;;;;;;21.97;67.25;99832.84;7672573;32;38532;-75
2022/06/04 09:19:35;;;;;;;14.27;6.47;;;;;;;22.18;66.56;99840.25;7685405;32;37375;-73
2022/06/04 09:23:51;;;;;;;11.93;3.30;;;;;;;22.13;67.17;99836.56;7685076;32;39312;-74
2022/06/04 09:28:19;;;;;;;5.62;3.30;;;;;;;22.39;65.93;99827.06;7685085;32;41261;-74
2022/06/04 09:32:44;;;;;;;3.87;2.42;;;;;;;22.33;65.99;99824.88;7684837;32;37992;-75
2022/06/04 09:37:01;;;;;;;6.62;2.75;;;;;;;22.42;65.84;99837.47;7685074;32;37142;-74
2022/06/04 09:41:21;;;;;;;4.07;2.62;;;;;;;22.34;66.97;99827.31;7684777;32;40047;-74
2022/06/04 09:45:37;;;;;;;8.52;2.60;;;;;;;22.77;65.39;99830.56;7671147;32;40741;-80
2022/06/04 09:49:57;;;;;;;7.00;2.80;;;;;;;22.90;64.78;99825.75;7684746;32;37764;-79
2022/06/04 09:54:24;;;;;;;4.35;2.65;;;;;;;22.97;63.21;99829.50;7684398;32;36730;-81
2022/06/04 09:58:43;;;;;;;6.20;2.80;;;;;;;22.83;64.65;99834.69;7671695;32;40178;-77
2022/06/04 10:03:18;;;;;;;6.03;2.30;;;;;;;22.96;63.52;99839.03;7684868;32;39735;-81
2022/06/04 10:07:37;;;;;;;6.65;2.30;;;;;;;23.15;63.35;99849.50;7684822;32;37882;-79
2022/06/04 10:11:56;;;;;;;8.35;2.28;;;;;;;23.32;62.81;99847.56;7684470;32;37800;-82
2022/06/04 10:16:20;;;;;;;7.18;1.90;;;;;;;23.61;62.05;99861.06;7682032;32;39476;-83
2022/06/04 10:20:39;;;;;;;6.40;2.15;;;;;;;23.81;61.59;99850.06;7668551;32;39608;-81
2022/06/04 10:24:59;;;;;;;3.70;2.00;;;;;;;23.79;61.03;99860.72;7669264;32;37660;-80
2022/06/04 10:29:42;;;;;;;4.18;1.90;;;;;;;23.50;61.40;99856.37;7681719;32;37818;-79
2022/06/04 10:34:30;;;;;;;5.55;1.90;;;;;;;24.19;61.07;99857.72;7684690;32;39392;-80
2022/06/04 10:39:15;;;;;;;3.95;1.98;;;;;;;24.34;60.53;99860.84;7673108;32;39869;-80
2022/06/04 10:43:44;;;;;;;6.47;2.00;;;;;;;24.36;60.28;99847.34;7646550;32;38663;-80
2022/06/04 10:48:11;;;;;;;7.72;2.03;;;;;;;24.29;60.41;99853.56;7657954;32;37337;-81
2022/06/04 10:52:48;;;;;;;2.87;2.03;;;;;;;24.46;59.25;99851.56;7677960;32;39984;-81
2022/06/04 10:57:35;;;;;;;5.05;2.10;;;;;;;24.02;60.39;99862.88;7684204;32;40736;-81
2022/06/04 11:01:58;;;;;;;3.00;2.10;;;;;;;23.98;60.75;99860.81;7683560;32;40500;-80
2022/06/04 11:06:24;;;;;;;4.55;2.37;;;;;;;23.73;61.40;99859.34;7683744;32;37031;-81
2022/06/04 11:10:45;;;;;;;2.60;2.08;;;;;;;23.66;61.31;99868.31;7683781;32;39259;-81
2022/06/04 11:15:31;;;;;;;3.20;2.37;;;;;;;23.73;61.27;99864.91;7683582;32;40624;-83
2022/06/04 11:19:53;;;;;;;5.20;2.35;;;;;;;23.51;61.40;99875.50;7672462;32;37907;-82
2022/06/04 11:24:12;;;;;;;3.93;2.37;;;;;;;23.38;61.70;99880.31;7683694;32;37004;-82
2022/06/04 11:28:28;;;;;;;5.07;2.33;;;;;;;23.53;60.52;99875.16;7683664;32;39304;-82
2022/06/04 11:32:58;;;;;;;5.62;2.47;;;;;;;23.54;61.51;99874.81;7669268;32;40947;-82
2022/06/04 11:37:39;;;;;;;5.10;2.00;;;;;;;23.60;61.65;99883.69;7670206;32;37985;-81
2022/06/04 11:42:43;;;;;;;4.80;2.30;;;;;;;23.75;60.47;99868.16;7660535;32;36867;-79
2022/06/04 11:47:21;;;;;;;4.45;2.40;;;;;;;23.65;62.12;99874.28;7683234;32;39824;-81
2022/06/04 11:51:56;;;;;;;3.78;2.03;;;;;;;23.98;62.60;99888.66;7686117;32;40754;-82
2022/06/04 11:56:34;;;;;;;3.17;1.95;;;;;;;24.21;60.99;99876.84;7684711;32;37946;-83
2022/06/04 12:00:56;;;;;;;4.25;2.10;;;;;;;24.95;60.28;99875.31;7674615;32;37126;-82
2022/06/04 12:05:40;;;;;;;3.15;2.08;;;;;;;25.62;57.31;99875.03;7686346;32;39518;-81
2022/06/04 12:10:22;;;;;;;4.53;2.30;;;;;;;26.38;56.04;99869.47;7686070;32;40829;-80
2022/06/04 12:15:00;;;;;;;7.60;2.10;;;;;;;26.72;55.06;99866.78;7662340;32;36148;-82
2022/06/04 12:24:17;;;;;;;2.00;1.67;;;;;;;26.80;51.84;99850.88;7686782;32;39489;-79
2022/06/04 12:28:43;;;;;;;3.08;1.92;;;;;;;26.59;52.70;99851.41;7685918;32;39638;-81
2022/06/04 12:33:14;;;;;;;5.70;2.10;;;;;;;26.26;54.17;99846.56;7685820;32;37886;-81
2022/06/04 12:37:34;;;;;;;2.80;1.90;;;;;;;26.56;51.29;99855.78;7674053;32;37052;-80
2022/06/04 12:41:59;;;;;;;3.65;1.92;;;;;;;26.72;52.49;99863.19;7685734;32;39241;-80
2022/06/04 12:46:22;;;;;;;3.70;1.85;;;;;;;26.90;51.92;99858.59;7672541;32;39879;-80
2022/06/04 12:50:39;;;;;;;3.20;2.00;;;;;;;26.80;55.13;99867.66;7685338;32;38048;-80
2022/06/04 12:55:07;;;;;;;3.00;1.73;;;;;;;26.94;51.90;99861.44;7684968;32;37251;-80
2022/06/04 12:59:40;;;;;;;3.20;1.90;;;;;;;27.31;49.39;99861.50;7684309;32;39408;-80
2022/06/04 13:04:05;;;;;;;3.90;1.67;;;;;;;27.50;47.44;99854.09;7685630;32;40272;-80
2022/06/04 13:08:21;;;;;;;4.93;1.98;;;;;;;27.92;50.05;99852.88;7685465;32;37754;-80
2022/06/04 13:12:46;;;;;;;5.68;1.83;;;;;;;28.16;46.33;99845.06;7685490;32;37697;-81
2022/06/04 13:17:32;;;;;;;4.28;2.05;;;;;;;28.15;46.78;99835.84;7685571;32;39291;-79
2022/06/04 13:21:49;;;;;;;8.02;1.95;;;;;;;29.02;46.52;99817.44;7685452;32;40804;-80
2022/06/04 13:26:31;;;;;;;5.47;1.60;;;;;;;29.24;46.03;99820.34;7671805;32;38664;-81
2022/06/04 13:30:52;;;;;;;4.57;1.77;;;;;;;28.82;44.93;99803.75;7679549;32;36832;-81
2022/06/04 13:35:15;;;;;;;4.30;1.67;;;;;;;28.79;45.88;99807.34;7685335;32;39406;-80
2022/06/04 13:39:35;;;;;;;5.90;1.65;;;;;;;29.10;45.25;99802.22;7685319;32;40927;-80
2022/06/04 13:43:51;;;;;;;3.95;1.73;;;;;;;29.60;43.93;99804.31;7685069;32;38612;-83
2022/06/04 13:48:34;;;;;;;7.37;1.98;;;;;;;29.57;43.20;99799.50;7685227;32;36943;-76
2022/06/04 13:52:53;;;;;;;;;;;;;;;29.59;42.58;99799.88;7683681;32;40243;-73
2022/06/04 14:11:33;;;;;;;5.55;1.55;;;;;;;31.57;38.44;99771.03;7787049;32;132572;-73
2022/06/04 14:15:58;;;;;;;5.55;1.77;;;;;;;31.57;38.44;99771.03;7784036;32;39723;-72
2022/06/04 14:20:38;;;;;;;4.20;1.50;;;;;;;31.22;40.20;99767.25;7784834;32;37945;-72
2022/06/04 14:24:55;;;;;;;5.15;1.70;;;;;;;30.98;40.34;99754.97;7784988;32;36629;-73
2022/06/04 14:29:21;;;;;;;6.70;1.77;;;;;;;31.49;41.58;99753.34;7785029;32;39740;-74
2022/06/04 14:33:39;;;;;;;6.05;1.90;;;;;;;31.34;37.24;99738.59;7784833;32;40696;-73
2022/06/04 14:38:16;;;;;;;5.87;1.58;;;;;;;31.92;38.22;99732.44;7781989;32;37911;-73
2022/06/04 14:42:49;;;;;;;4.03;1.67;;;;;;;32.14;38.05;99725.38;7784286;32;37717;-73
2022/06/04 14:47:19;;;;;;;2.65;1.40;;;;;;;31.74;38.84;99724.19;7782768;32;39058;-72
2022/06/04 14:52:10;;;;;;;3.75;1.70;;;;;;;31.33;40.60;99725.72;7784747;32;40118;-72
2022/06/04 14:56:48;;;;;;;3.47;1.48;;;;;;;31.49;38.23;99725.19;7778779;32;38535;-72
2022/06/04 15:01:07;;;;;;;4.62;1.80;;;;;;;31.06;39.11;99709.47;7800844;32;36924;-72
2022/06/04 15:05:42;;;;;;;4.05;1.50;;;;;;;31.48;38.84;99717.97;7796365;32;39629;-72
2022/06/04 15:10:10;;;;;;;5.55;1.50;;;;;;;30.64;40.58;99716.94;7776080;32;39901;-72
2022/06/04 15:27:38;;;;;;;3.72;1.37;;;;;;;31.05;39.45;99699.41;7835960;31;1021773;-74
2022/06/04 15:55:44;;;;;;;5.25;1.73;;;;;;;31.28;38.31;99698.00;7831759;31;277742;-74
2022/06/04 16:00:23;;;;;;;5.53;1.60;;;;;;;31.28;38.31;99698.00;7839581;32;40557;-75
2022/06/04 16:04:58;;;;;;;1.85;1.37;;;;;;;30.95;40.17;99696.69;7827425;32;36403;-75
2022/06/04 16:09:17;;;;;;;4.60;1.42;;;;;;;30.74;39.75;99692.78;7826104;32;36695;-74
2022/06/04 16:27:34;;;;;;;3.85;1.80;;;;;;;30.64;38.51;99685.19;7794999;32;139031;-74
2022/06/04 16:32:04;;;;;;;5.40;1.62;;;;;;;30.64;38.51;99685.19;7784082;32;39736;-75
2022/06/04 16:36:22;;;;;;;3.17;1.55;;;;;;;30.51;39.80;99682.88;7784560;32;37972;-75
2022/06/04 16:45:22;;;;;;;4.18;1.80;;;;;;;30.32;40.51;99678.50;7785122;32;39816;-75
2022/06/04 16:49:59;;;;;;;3.72;1.37;;;;;;;30.27;40.46;99687.38;7783119;32;40071;-74
2022/06/04 16:54:15;;;;;;;4.35;1.52;;;;;;;29.91;41.81;99707.19;7784697;32;37999;-74
2022/06/04 16:58:31;;;;;;;4.35;1.87;;;;;;;29.88;42.31;99710.00;7783642;32;36847;-74
2022/06/04 17:03:15;;;;;;;6.35;2.28;;;;;;;29.69;42.34;99714.03;7784872;32;39144;-81
2022/06/04 17:08:04;;;;;;;5.55;1.80;;;;;;;29.46;43.25;99722.88;7784827;32;39912;-79
2022/06/04 17:12:48;;;;;;;4.72;1.70;;;;;;;29.09;44.76;99716.41;7784568;32;37941;-78
2022/06/04 17:17:22;;;;;;;6.05;2.08;;;;;;;29.24;43.71;99724.91;7784588;32;37739;-85
2022/06/04 17:22:04;;;;;;;9.82;1.80;;;;;;;28.68;46.82;99733.56;7784627;32;39094;-82
2022/06/04 17:26:40;;;;;;;4.82;2.30;;;;;;;28.87;45.96;99740.03;7775618;32;39869;-82
2022/06/04 17:31:15;;;;;;;9.35;2.20;;;;;;;28.91;45.04;99744.47;7762647;32;38451;-82
2022/06/04 17:35:39;;;;;;;7.15;2.10;;;;;;;28.87;45.27;99745.66;7764505;32;37633;-83
2022/06/04 17:52:55;;;;;;;4.43;2.28;;;;;;;28.42;46.59;99741.09;7835406;31;176082;-80
2022/06/04 17:57:12;;;;;;;4.12;2.10;;;;;;;28.69;46.73;99749.22;7836298;31;39797;-81
2022/06/04 18:01:28;;;;;;;7.60;2.20;;;;;;;28.74;45.66;99740.41;7826161;32;36856;-81
2022/06/04 18:05:50;;;;;;;5.78;2.62;;;;;;;28.69;46.00;99746.41;7839455;32;36943;-80
2022/06/04 18:10:07;;;;;;;6.68;2.45;;;;;;;28.58;46.77;99753.97;7838190;31;39705;-82
2022/06/04 18:29:56;;;;;;;10.70;3.12;;;;;;;27.51;52.48;99763.31;7801909;32;352135;-77
2022/06/04 18:34:13;;;;;;;6.85;2.40;;;;;;;27.48;52.30;99759.31;7785155;32;39790;-78
2022/06/04 18:38:30;;;;;;;6.40;2.15;;;;;;;27.52;52.79;99748.13;7785055;32;37653;-78
2022/06/04 18:56:35;;;;;;;7.85;2.65;;;;;;;26.91;52.54;99762.34;7794268;32;37963;-78
2022/06/04 19:00:52;;;;;;;7.97;2.53;;;;;;;26.66;53.86;99783.62;7783693;32;36946;-78
2022/06/04 19:05:09;;;;;;;4.82;2.15;;;;;;;26.64;53.81;99780.41;7783920;32;39121;-78
2022/06/04 19:09:42;;;;;;;6.00;2.53;;;;;;;26.45;54.37;99801.69;7775658;32;39917;-72
2022/06/04 19:14:02;;;;;;;3.12;2.03;;;;;;;26.19;55.10;99817.31;7783929;32;37916;-73
2022/06/04 19:18:19;;;;;;;12.30;2.92;;;;;;;26.04;55.53;99827.50;7782522;32;36909;-72
2022/06/04 19:27:27;;;;;;;6.80;3.35;;;;;;;25.71;56.49;99828.13;7781783;32;39733;-74
2022/06/04 19:32:15;;;;;;;8.35;3.80;;;;;;;25.49;57.48;99844.50;7765767;32;37875;-72
2022/06/04 19:36:31;;;;;;;7.47;3.37;;;;;;;25.36;57.88;99837.50;7765580;32;37053;-71
2022/06/04 19:40:47;;;;;;;4.80;2.70;;;;;;;25.27;58.13;99840.53;7763358;32;39896;-72
2022/06/04 19:45:05;;;;;;;3.97;2.58;;;;;;;25.16;58.40;99838.66;7764859;32;41193;-73
2022/06/04 19:49:33;;;;;;;4.80;2.15;;;;;;;25.03;58.84;99849.19;7765388;32;38845;-72
2022/06/04 19:58:33;;;;;;;6.72;2.60;;;;;;;24.96;57.96;99857.41;7765938;32;39204;-72
2022/06/04 20:02:53;;;;;;;5.53;2.47;;;;;;;24.69;59.07;99844.12;7765940;32;39535;-73
2022/06/04 20:07:19;;;;;;;10.70;2.92;;;;;;;24.54;59.58;99836.62;7765854;32;36493;-73
2022/06/04 20:11:44;;;;;;;7.70;3.15;;;;;;;24.58;59.43;99840.31;7765395;32;37796;-73
2022/06/04 20:16:01;;;;;;;13.02;3.40;;;;;;;24.45;59.82;99844.38;7765843;32;39873;-74
2022/06/04 20:20:26;;;;;;;8.20;2.70;;;;;;;24.45;59.64;99856.31;7765692;32;40041;-74
2022/06/04 20:24:59;;;;;;;7.68;2.45;;;;;;;24.30;60.08;99851.59;7754484;32;38585;-72
2022/06/04 20:29:16;;;;;;;8.10;2.92;;;;;;;24.26;60.03;99837.59;7765642;32;36696;-72
2022/06/04 20:33:34;;;;;;;6.15;2.47;;;;;;;24.30;59.90;99827.34;7765605;32;39187;-73
2022/06/04 20:37:54;;;;;;;9.85;2.75;;;;;;;24.24;60.41;99828.00;7765592;32;38229;-71
2022/06/04 20:42:11;;;;;;;8.48;2.78;;;;;;;24.25;60.69;99801.72;7764496;32;36843;-72
2022/06/04 20:46:28;;;;;;;7.22;3.72;;;;;;;23.96;61.52;99815.81;7765264;32;37401;-71
2022/06/04 20:50:45;;;;;;;9.35;4.57;;;;;;;23.73;62.32;99825.94;7765515;32;39913;-72
2022/06/04 20:55:01;;;;;;;8.25;3.55;;;;;;;23.70;62.50;99826.66;7765338;32;39964;-72
2022/06/04 20:59:19;;;;;;;7.15;2.83;;;;;;;23.61;62.66;99829.62;7765801;32;36098;-71
2022/06/04 21:03:35;;;;;;;8.95;2.80;;;;;;;23.77;61.77;99838.00;7765405;32;36595;-71
2022/06/04 21:07:53;;;;;;;9.32;3.20;;;;;;;23.77;61.69;99843.56;7764875;32;39246;-72
2022/06/04 21:12:09;;;;;;;4.72;2.70;;;;;;;23.69;61.90;99844.56;7765283;32;40006;-72
2022/06/04 21:16:27;;;;;;;8.48;2.80;;;;;;;23.47;63.05;99841.19;7765159;32;37595;-72
2022/06/04 21:20:44;;;;;;;5.93;3.15;;;;;;;23.58;62.61;99830.38;7765219;32;36724;-72
2022/06/04 21:25:02;;;;;;;6.65;3.00;;;;;;;23.35;63.37;99816.25;7764404;32;39912;-70
2022/06/04 21:29:22;;;;;;;7.72;3.67;;;;;;;23.35;63.01;99821.81;7764540;32;40824;-72
2022/06/04 21:33:38;;;;;;;5.25;3.00;;;;;;;23.24;63.04;99824.31;7764795;32;38505;-71
2022/06/04 21:37:54;;;;;;;7.65;2.65;;;;;;;23.37;62.38;99817.53;7764568;32;36924;-71
2022/06/04 21:42:10;;;;;;;6.43;2.92;;;;;;;23.30;62.49;99803.44;7764653;32;39955;-71
2022/06/04 21:46:28;;;;;;;7.53;3.08;;;;;;;23.56;61.56;99800.12;7764816;32;40850;-71
2022/06/04 21:50:47;;;;;;;7.53;3.37;;;;;;;22.93;63.77;99798.03;7764371;32;39616;-71
2022/06/04 21:55:05;;;;;;;6.12;3.10;;;;;;;22.80;64.27;99813.16;7764538;32;35865;-71
2022/06/04 21:59:21;;;;;;;4.62;2.87;;;;;;;22.75;64.27;99828.13;7764612;32;40247;-72
2022/06/04 22:03:39;;;;;;;8.85;3.35;;;;;;;22.81;63.75;99843.38;7762967;32;41202;-72
2022/06/04 22:07:56;;;;;;;7.20;3.12;;;;;;;22.64;63.96;99846.44;7762978;32;38026;-71
2022/06/04 22:12:12;;;;;;;9.45;3.10;;;;;;;22.70;63.68;99864.50;7764112;32;37204;-71
2022/06/04 22:16:31;;;;;;;9.70;3.10;;;;;;;22.79;63.29;99876.25;7764234;32;39839;-72
2022/06/04 22:20:49;;;;;;;10.18;3.55;;;;;;;22.69;63.63;99873.97;7764166;32;39605;-71
2022/06/04 22:25:08;;;;;;;7.97;3.37;;;;;;;22.71;63.66;99877.22;7763748;32;37831;-71
2022/06/04 22:29:24;;;;;;;8.30;4.03;;;;;;;22.67;63.94;99879.09;7763771;32;36951;-71
2022/06/04 22:33:40;;;;;;;11.40;3.40;;;;;;;22.72;63.51;99894.72;7763254;32;39066;-71
2022/06/04 22:37:57;;;;;;;8.00;3.45;;;;;;;22.60;63.73;99892.75;7763422;32;40740;-71
2022/06/04 22:42:13;;;;;;;11.55;3.72;;;;;;;22.64;63.30;99885.34;7763679;32;38545;-71
2022/06/04 22:46:31;;;;;;;10.23;3.65;;;;;;;22.60;63.30;99890.00;7763459;32;37532;-71
2022/06/04 22:50:48;;;;;;;6.85;3.58;;;;;;;22.47;63.25;99900.28;7763249;32;40298;-72
2022/06/04 22:55:04;;;;;;;8.07;3.60;;;;;;;22.21;64.27;99908.97;7761765;32;39716;-71
2022/06/04 22:59:21;;;;;;;9.10;4.43;;;;;;;22.16;64.16;99910.00;7762888;32;37854;-72
2022/06/04 23:03:37;;;;;;;9.95;4.30;;;;;;;22.39;63.53;99915.13;7764209;32;37562;-72